createdAt,value
2019-05-29T00:00:10.087Z,89.60
2019-05-29T00:02:39.102Z,89.60
2019-05-29T00:05:08.157Z,89.60
2019-05-29T00:07:37.121Z,89.90
2019-05-29T00:10:10.511Z,89.70
2019-05-29T00:12:39.514Z,89.90
2019-05-29T00:15:08.896Z,90.00
2019-05-29T00:17:37.756Z,90.00
2019-05-29T00:20:06.770Z,90.00
2019-05-29T00:22:35.950Z,90.00
2019-05-29T00:25:06.420Z,90.00
2019-05-29T00:27:35.322Z,89.90
2019-05-29T00:30:08.799Z,90.00
2019-05-29T00:32:38.129Z,90.10
2019-05-29T00:35:10.092Z,90.40
2019-05-29T00:37:39.299Z,90.10
2019-05-29T00:40:08.962Z,90.10
2019-05-29T00:42:38.034Z,90.10
2019-05-29T00:45:09.532Z,90.10
2019-05-29T00:47:38.668Z,90.20
2019-05-29T00:50:09.806Z,90.20
2019-05-29T00:52:38.949Z,90.20
2019-05-29T00:55:08.692Z,90.20
2019-05-29T00:57:38.501Z,90.30
2019-05-29T01:00:08.942Z,90.40
2019-05-29T01:02:38.066Z,90.40
2019-05-29T01:05:08.150Z,90.50
2019-05-29T01:07:37.095Z,90.40
2019-05-29T01:10:10.506Z,90.50
2019-05-29T01:12:40.723Z,90.40
2019-05-29T01:15:11.146Z,90.50
2019-05-29T01:17:40.161Z,90.40
2019-05-29T01:20:09.303Z,90.40
2019-05-29T01:22:38.161Z,90.30
2019-05-29T01:25:07.637Z,90.30
2019-05-29T01:27:36.567Z,90.20
2019-05-29T01:30:07.210Z,90.00
2019-05-29T01:32:36.068Z,89.80
2019-05-29T01:35:06.607Z,89.40
2019-05-29T01:37:35.512Z,90.00
2019-05-29T01:40:19.340Z,90.00
2019-05-29T01:42:36.575Z,89.10
2019-05-29T01:45:08.695Z,88.20
2019-05-29T01:47:37.984Z,88.00
2019-05-29T01:50:07.815Z,87.40
2019-05-29T01:52:36.741Z,87.60
2019-05-29T01:55:10.233Z,87.60
2019-05-29T01:57:39.158Z,87.90
2019-05-29T02:00:09.757Z,87.70
2019-05-29T02:02:38.637Z,87.80
2019-05-29T02:05:07.695Z,87.60
2019-05-29T02:07:36.570Z,86.70
2019-05-29T02:10:09.121Z,86.70
2019-05-29T02:12:38.148Z,87.20
2019-05-29T02:15:22.877Z,87.40
2019-05-29T02:17:39.387Z,87.60
2019-05-29T02:20:09.635Z,87.70
2019-05-29T02:22:38.533Z,87.80
2019-05-29T02:25:07.898Z,87.80
2019-05-29T02:27:36.840Z,87.50
2019-05-29T02:30:07.791Z,87.30
2019-05-29T02:32:36.728Z,87.50
2019-05-29T02:35:08.816Z,87.30
2019-05-29T02:37:37.887Z,87.40
2019-05-29T02:40:08.478Z,86.70
2019-05-29T02:42:37.688Z,84.80
2019-05-29T02:45:09.725Z,85.50
2019-05-29T02:47:38.615Z,86.10
2019-05-29T02:50:08.694Z,85.70
2019-05-29T02:52:37.751Z,86.50
2019-05-29T02:55:08.017Z,86.60
2019-05-29T02:57:37.095Z,86.70
2019-05-29T03:00:08.711Z,86.00
2019-05-29T03:02:37.651Z,86.10
2019-05-29T03:05:07.909Z,86.10
2019-05-29T03:07:36.792Z,85.30
2019-05-29T03:10:11.815Z,85.80
2019-05-29T03:12:41.120Z,85.40
2019-05-29T03:15:11.771Z,85.30
2019-05-29T03:17:40.662Z,85.50
2019-05-29T03:20:10.654Z,84.80
2019-05-29T03:22:39.563Z,85.20
2019-05-29T03:25:08.528Z,85.50
2019-05-29T03:27:38.405Z,85.20
2019-05-29T03:30:08.559Z,85.70
2019-05-29T03:32:46.740Z,85.40
2019-05-29T03:35:08.306Z,85.70
2019-05-29T03:37:38.672Z,85.50
2019-05-29T03:40:08.314Z,86.40
2019-05-29T03:42:38.712Z,86.30
2019-05-29T03:45:08.016Z,86.40
2019-05-29T03:47:37.314Z,87.10
2019-05-29T03:50:08.229Z,86.90
2019-05-29T03:52:39.014Z,86.80
2019-05-29T03:55:07.968Z,86.50
2019-05-29T03:57:38.127Z,86.70
2019-05-29T04:00:08.011Z,87.30
2019-05-29T04:02:38.157Z,87.10
2019-05-29T04:05:09.141Z,86.30
2019-05-29T04:07:38.495Z,85.60
2019-05-29T04:10:08.609Z,86.80
2019-05-29T04:12:38.174Z,85.50
2019-05-29T04:15:08.341Z,85.90
2019-05-29T04:17:38.719Z,86.00
2019-05-29T04:20:08.045Z,85.80
2019-05-29T04:22:46.487Z,85.50
2019-05-29T04:25:15.690Z,85.40
2019-05-29T04:27:46.192Z,85.40
2019-05-29T04:30:15.683Z,84.20
2019-05-29T04:32:44.620Z,82.40
2019-05-29T04:35:13.567Z,78.20
2019-05-29T04:37:42.890Z,77.20
2019-05-29T04:40:12.377Z,76.20
2019-05-29T04:42:41.231Z,73.00
2019-05-29T04:45:10.653Z,72.80
2019-05-29T04:47:39.864Z,73.10
2019-05-29T04:50:09.133Z,74.60
2019-05-29T04:52:39.862Z,74.40
2019-05-29T04:55:09.300Z,75.10
2019-05-29T04:57:39.243Z,74.50
2019-05-29T05:00:09.122Z,76.20
2019-05-29T05:02:39.274Z,74.40
2019-05-29T05:05:08.616Z,76.40
2019-05-29T05:07:37.536Z,77.10
2019-05-29T05:10:07.895Z,75.80
2019-05-29T05:12:37.887Z,74.40
2019-05-29T05:15:07.353Z,73.60
2019-05-29T05:17:36.349Z,71.70
2019-05-29T05:20:06.636Z,71.90
2019-05-29T05:22:36.387Z,73.70
2019-05-29T05:25:07.130Z,73.80
2019-05-29T05:27:36.432Z,74.50
2019-05-29T05:30:08.979Z,75.60
2019-05-29T05:32:38.925Z,76.10
2019-05-29T05:35:08.314Z,76.50
2019-05-29T05:37:37.350Z,76.90
2019-05-29T05:40:07.687Z,76.80
2019-05-29T05:42:37.161Z,76.00
2019-05-29T05:45:07.786Z,76.10
2019-05-29T05:47:50.452Z,76.30
2019-05-29T05:50:07.613Z,74.10
2019-05-29T05:52:37.484Z,73.50
2019-05-29T05:55:07.016Z,73.40
2019-05-29T05:57:35.811Z,74.10
2019-05-29T06:00:07.207Z,72.80
2019-05-29T06:02:36.201Z,71.90
2019-05-29T06:05:06.757Z,72.60
2019-05-29T06:07:36.078Z,74.40
2019-05-29T06:10:08.201Z,73.90
2019-05-29T06:12:38.489Z,72.80
2019-05-29T06:15:08.581Z,74.10
2019-05-29T06:17:38.603Z,72.50
2019-05-29T06:20:10.450Z,73.40
2019-05-29T06:22:41.125Z,74.20
2019-05-29T06:25:10.348Z,75.20
2019-05-29T06:27:39.411Z,73.90
2019-05-29T06:30:09.265Z,73.00
2019-05-29T06:32:39.332Z,75.00
2019-05-29T06:35:08.402Z,74.80
2019-05-29T06:37:37.748Z,74.10
2019-05-29T06:40:08.583Z,73.60
2019-05-29T06:42:37.841Z,72.40
2019-05-29T06:45:08.033Z,72.50
2019-05-29T06:47:38.619Z,71.50
2019-05-29T06:50:08.242Z,72.10
2019-05-29T06:52:37.430Z,71.50
2019-05-29T06:55:06.493Z,71.90
2019-05-29T06:57:36.039Z,71.80
2019-05-29T07:00:09.500Z,70.80
2019-05-29T07:02:38.590Z,70.30
2019-05-29T07:05:07.526Z,70.50
2019-05-29T07:07:36.435Z,72.70
2019-05-29T07:10:08.430Z,71.80
2019-05-29T07:12:38.381Z,70.40
2019-05-29T07:15:07.860Z,70.00
2019-05-29T07:17:36.770Z,68.70
2019-05-29T07:20:06.733Z,67.20
2019-05-29T07:22:36.817Z,65.30
2019-05-29T07:25:06.944Z,66.60
2019-05-29T07:27:36.852Z,66.10
2019-05-29T07:30:07.998Z,66.40
2019-05-29T07:32:38.662Z,65.00
2019-05-29T07:35:07.765Z,61.80
2019-05-29T07:37:37.745Z,62.80
2019-05-29T07:40:08.323Z,63.30
2019-05-29T07:42:39.318Z,65.30
2019-05-29T07:45:11.703Z,64.00
2019-05-29T07:47:40.657Z,63.10
2019-05-29T07:50:09.512Z,64.00
2019-05-29T07:52:38.646Z,63.90
2019-05-29T07:55:08.653Z,61.70
2019-05-29T07:57:38.862Z,61.40
2019-05-29T08:00:08.422Z,61.70
2019-05-29T08:02:37.367Z,61.60
2019-05-29T08:05:08.010Z,62.00
2019-05-29T08:07:36.895Z,62.00
2019-05-29T08:10:07.444Z,61.90
2019-05-29T08:12:36.325Z,60.10
2019-05-29T08:15:06.058Z,58.70
2019-05-29T08:17:35.006Z,59.80
2019-05-29T08:20:07.953Z,58.60
2019-05-29T08:22:37.027Z,58.60
2019-05-29T08:25:06.748Z,58.30
2019-05-29T08:27:35.591Z,57.90
2019-05-29T08:30:07.151Z,57.20
2019-05-29T08:32:36.108Z,56.60
2019-05-29T08:35:07.040Z,58.00
2019-05-29T08:37:35.882Z,57.80
2019-05-29T08:40:06.871Z,53.80
2019-05-29T08:42:35.937Z,54.50
2019-05-29T08:45:07.806Z,56.30
2019-05-29T08:47:37.135Z,55.20
2019-05-29T08:50:18.272Z,55.10
2019-05-29T08:52:37.382Z,55.50
2019-05-29T08:55:07.735Z,55.60
2019-05-29T08:57:36.734Z,55.20
2019-05-29T09:00:09.941Z,54.90
2019-05-29T09:02:38.920Z,53.70
2019-05-29T09:05:08.235Z,53.30
2019-05-29T09:07:37.208Z,53.50
2019-05-29T09:10:08.026Z,51.80
2019-05-29T09:12:36.846Z,52.30
2019-05-29T09:15:10.209Z,53.30
2019-05-29T09:17:39.743Z,50.60
2019-05-29T09:20:26.148Z,50.20
2019-05-29T09:22:39.711Z,52.90
2019-05-29T09:25:09.410Z,50.40
2019-05-29T09:27:38.286Z,50.30
2019-05-29T09:30:08.643Z,50.80
2019-05-29T09:32:53.366Z,49.50
2019-05-29T09:35:08.207Z,47.80
2019-05-29T09:37:38.442Z,49.20
2019-05-29T09:40:18.943Z,45.60
2019-05-29T09:42:48.103Z,46.80
2019-05-29T09:45:17.935Z,43.80
2019-05-29T09:47:47.297Z,45.90
2019-05-29T09:50:17.467Z,46.20
2019-05-29T09:52:47.378Z,47.30
2019-05-29T09:55:16.621Z,46.20
2019-05-29T09:57:45.536Z,44.30
2019-05-29T10:00:15.331Z,45.80
2019-05-29T10:02:44.310Z,45.40
2019-05-29T10:05:13.609Z,44.70
2019-05-29T10:07:42.498Z,45.40
2019-05-29T10:10:12.677Z,44.40
2019-05-29T10:12:41.490Z,42.50
2019-05-29T10:15:12.334Z,45.50
2019-05-29T10:17:41.331Z,42.70
2019-05-29T10:20:12.111Z,40.00
2019-05-29T10:22:41.906Z,40.20
2019-05-29T10:25:10.997Z,41.10
2019-05-29T10:27:39.872Z,40.70
2019-05-29T10:30:09.892Z,41.50
2019-05-29T10:32:38.775Z,40.00
2019-05-29T10:35:08.663Z,42.40
2019-05-29T10:37:37.527Z,39.90
2019-05-29T10:40:08.365Z,37.40
2019-05-29T10:42:37.385Z,37.90
2019-05-29T10:45:08.549Z,38.90
2019-05-29T10:47:37.499Z,38.40
2019-05-29T10:50:08.474Z,38.00
2019-05-29T10:52:38.762Z,38.40
2019-05-29T10:55:08.676Z,37.60
2019-05-29T10:57:37.534Z,37.60
2019-05-29T11:00:08.772Z,37.70
2019-05-29T11:02:37.663Z,37.20
2019-05-29T11:05:06.902Z,36.90
2019-05-29T11:07:35.789Z,36.10
2019-05-29T11:10:06.458Z,36.40
2019-05-29T11:12:39.090Z,36.40
2019-05-29T11:15:20.625Z,36.30
2019-05-29T11:17:37.989Z,36.80
2019-05-29T11:20:07.963Z,34.70
2019-05-29T11:22:36.802Z,35.20
2019-05-29T11:25:22.157Z,33.00
2019-05-29T11:27:38.087Z,34.50
2019-05-29T11:30:09.170Z,34.40
2019-05-29T11:32:38.159Z,35.00
2019-05-29T11:35:07.489Z,35.70
2019-05-29T11:37:36.358Z,33.30
2019-05-29T11:40:06.787Z,35.80
2019-05-29T11:42:35.639Z,33.20
2019-05-29T11:45:07.516Z,34.20
2019-05-29T11:47:36.465Z,35.30
2019-05-29T11:50:19.545Z,33.20
2019-05-29T11:52:46.041Z,34.90
2019-05-29T11:55:15.212Z,33.00
2019-05-29T11:57:44.314Z,33.20
2019-05-29T12:00:20.603Z,34.30
2019-05-29T12:02:48.607Z,33.60
2019-05-29T12:05:17.770Z,32.40
2019-05-29T12:07:46.687Z,33.40
2019-05-29T12:10:15.985Z,33.50
2019-05-29T12:12:44.839Z,34.00
2019-05-29T12:15:16.502Z,35.60
2019-05-29T12:17:44.591Z,34.10
2019-05-29T12:20:30.338Z,33.90
2019-05-29T12:23:11.030Z,31.70
2019-05-29T12:25:16.418Z,32.20
2019-05-29T12:27:45.502Z,32.40
2019-05-29T12:30:15.853Z,30.10
2019-05-29T12:32:45.376Z,33.50
2019-05-29T12:35:14.628Z,32.40
2019-05-29T12:37:43.578Z,36.40
2019-05-29T12:40:13.582Z,30.10
2019-05-29T12:42:44.994Z,31.00
2019-05-29T12:45:13.462Z,31.90
2019-05-29T12:47:42.370Z,32.00
2019-05-29T12:50:16.014Z,30.80
2019-05-29T12:52:44.918Z,30.70
2019-05-29T12:55:14.310Z,32.60
2019-05-29T12:57:43.748Z,33.40
2019-05-29T13:00:15.333Z,31.40
2019-05-29T13:02:44.285Z,31.90
2019-05-29T13:05:20.202Z,32.80
2019-05-29T13:07:44.669Z,32.20
2019-05-29T13:10:29.319Z,32.20
2019-05-29T13:12:45.927Z,31.40
2019-05-29T13:15:15.629Z,31.00
2019-05-29T13:17:44.832Z,30.00
2019-05-29T13:20:21.638Z,33.00
2019-05-29T13:22:44.752Z,32.20
2019-05-29T13:25:14.873Z,32.00
2019-05-29T13:27:43.942Z,30.30
2019-05-29T13:30:15.162Z,31.20
2019-05-29T13:32:44.107Z,30.00
2019-05-29T13:35:13.229Z,30.00
2019-05-29T13:37:42.192Z,34.10
2019-05-29T13:40:11.283Z,31.30
2019-05-29T13:42:40.734Z,32.20
2019-05-29T13:45:17.933Z,30.50
2019-05-29T13:47:41.435Z,30.20
2019-05-29T13:50:12.558Z,31.50
2019-05-29T13:52:41.907Z,28.80
2019-05-29T13:55:11.302Z,31.40
2019-05-29T13:57:40.384Z,29.10
2019-05-29T14:00:32.336Z,29.20
2019-05-29T14:02:45.707Z,32.10
2019-05-29T14:05:16.557Z,30.20
2019-05-29T14:07:45.463Z,29.50
2019-05-29T14:10:14.638Z,29.10
2019-05-29T14:12:43.464Z,29.90
2019-05-29T14:15:12.826Z,28.80
2019-05-29T14:17:41.703Z,29.10
2019-05-29T14:20:10.905Z,29.50
2019-05-29T14:22:39.799Z,30.20
2019-05-29T14:25:11.649Z,31.00
2019-05-29T14:27:40.706Z,30.00
2019-05-29T14:30:11.222Z,28.50
2019-05-29T14:32:40.160Z,30.30
2019-05-29T14:35:13.142Z,30.50
2019-05-29T14:37:41.871Z,28.90
2019-05-29T14:40:12.074Z,30.00
2019-05-29T14:42:41.300Z,29.50
2019-05-29T14:45:10.775Z,28.50
2019-05-29T14:47:41.183Z,29.10
2019-05-29T14:50:11.241Z,28.70
2019-05-29T14:52:41.476Z,28.70
2019-05-29T14:55:16.167Z,29.10
2019-05-29T14:57:42.945Z,29.40
2019-05-29T15:00:22.915Z,29.80
2019-05-29T15:02:47.438Z,28.60
2019-05-29T15:05:17.069Z,27.70
2019-05-29T15:07:46.726Z,27.60
2019-05-29T15:10:27.443Z,28.40
2019-05-29T15:12:46.645Z,27.80
2019-05-29T15:15:16.756Z,27.70
2019-05-29T15:17:45.919Z,28.70
2019-05-29T15:20:17.207Z,28.20
2019-05-29T15:22:46.205Z,29.30
2019-05-29T15:25:23.595Z,27.20
2019-05-29T15:27:45.861Z,28.20
2019-05-29T15:30:22.345Z,29.40
2019-05-29T15:32:47.833Z,29.40
2019-05-29T15:35:19.803Z,27.90
2019-05-29T15:37:47.829Z,26.80
2019-05-29T15:40:17.258Z,27.30
2019-05-29T15:42:46.806Z,27.90
2019-05-29T15:45:16.309Z,28.40
2019-05-29T15:47:45.280Z,28.00
2019-05-29T15:50:17.917Z,27.10
2019-05-29T15:52:47.168Z,28.10
2019-05-29T15:55:32.123Z,27.50
2019-05-29T15:57:46.715Z,28.50
2019-05-29T16:00:17.778Z,27.10
2019-05-29T16:02:48.973Z,27.90
2019-05-29T16:05:19.205Z,27.10
2019-05-29T16:07:48.552Z,27.90
2019-05-29T16:10:20.575Z,27.80
2019-05-29T16:12:49.051Z,28.60
2019-05-29T16:15:19.544Z,28.40
2019-05-29T16:17:48.546Z,29.90
2019-05-29T16:20:18.628Z,29.60
2019-05-29T16:22:48.281Z,29.50
2019-05-29T16:25:17.479Z,28.10
2019-05-29T16:27:46.456Z,28.90
2019-05-29T16:30:17.611Z,29.40
2019-05-29T16:32:47.015Z,28.90
2019-05-29T16:35:17.202Z,28.90
2019-05-29T16:37:46.303Z,28.40
2019-05-29T16:40:17.985Z,29.20
2019-05-29T16:42:47.358Z,29.10
2019-05-29T16:45:18.597Z,29.10
2019-05-29T16:47:47.801Z,30.30
2019-05-29T16:50:21.169Z,30.20
2019-05-29T16:52:50.887Z,29.40
2019-05-29T16:55:21.093Z,29.80
2019-05-29T16:57:50.358Z,29.70
2019-05-29T17:00:21.684Z,30.10
2019-05-29T17:03:10.435Z,30.50
2019-05-29T17:05:40.236Z,29.90
2019-05-29T17:08:09.356Z,30.40
2019-05-29T17:10:38.382Z,31.90
2019-05-29T17:13:08.082Z,33.60
2019-05-29T17:15:38.716Z,32.70
2019-05-29T17:18:07.929Z,32.30
2019-05-29T17:20:42.897Z,32.50
2019-05-29T17:23:12.247Z,32.80
2019-05-29T17:25:43.071Z,32.50
2019-05-29T17:28:12.114Z,33.60
2019-05-29T17:30:42.439Z,33.90
2019-05-29T17:33:11.285Z,33.20
2019-05-29T17:35:42.080Z,34.90
2019-05-29T17:38:10.916Z,35.20
2019-05-29T17:40:39.821Z,35.90
2019-05-29T17:43:08.864Z,37.20
2019-05-29T17:45:37.868Z,36.70
2019-05-29T17:48:06.864Z,36.80
2019-05-29T17:50:35.883Z,36.70
2019-05-29T17:53:04.950Z,37.90
2019-05-29T17:55:33.890Z,37.40
2019-05-29T17:58:03.635Z,38.70
2019-05-29T18:00:32.610Z,38.90
2019-05-29T18:03:01.576Z,39.90
2019-05-29T18:05:30.565Z,40.60
2019-05-29T18:08:01.799Z,41.10
2019-05-29T18:10:30.081Z,41.60
2019-05-29T18:12:59.044Z,42.80
2019-05-29T18:15:27.884Z,43.40
2019-05-29T18:17:56.782Z,44.10
2019-05-29T18:20:25.913Z,44.30
2019-05-29T18:22:54.864Z,45.30
2019-05-29T18:25:24.097Z,45.90
2019-05-29T18:27:53.482Z,47.00
2019-05-29T18:30:22.362Z,47.50
2019-05-29T18:32:52.673Z,47.10
2019-05-29T18:35:22.776Z,48.00
2019-05-29T18:37:51.915Z,48.50
2019-05-29T18:40:22.360Z,49.40
2019-05-29T18:42:51.488Z,50.00
2019-05-29T18:45:23.427Z,50.00
2019-05-29T18:47:51.250Z,50.60
2019-05-29T18:50:21.399Z,50.60
2019-05-29T18:52:50.481Z,51.40
2019-05-29T18:55:20.781Z,51.70
2019-05-29T18:57:49.888Z,52.00
2019-05-29T19:00:19.191Z,52.60
2019-05-29T19:02:48.200Z,52.60
2019-05-29T19:05:17.283Z,53.40
2019-05-29T19:07:46.206Z,53.90
2019-05-29T19:10:15.586Z,54.10
2019-05-29T19:12:44.559Z,54.80
2019-05-29T19:15:13.886Z,54.40
2019-05-29T19:17:42.773Z,55.30
2019-05-29T19:20:13.833Z,56.00
2019-05-29T19:22:42.717Z,56.40
2019-05-29T19:25:11.873Z,56.20
2019-05-29T19:27:42.318Z,56.70
2019-05-29T19:30:12.182Z,56.90
2019-05-29T19:32:41.105Z,57.30
2019-05-29T19:35:10.418Z,57.40
2019-05-29T19:37:39.368Z,57.90
2019-05-29T19:40:08.827Z,58.10
2019-05-29T19:42:38.007Z,58.10
2019-05-29T19:45:10.517Z,57.60
2019-05-29T19:47:39.500Z,58.90
2019-05-29T19:50:11.366Z,59.10
2019-05-29T19:52:39.893Z,60.30
2019-05-29T19:55:09.334Z,60.00
2019-05-29T19:57:55.178Z,60.30
2019-05-29T20:00:13.703Z,60.80
2019-05-29T20:02:42.713Z,60.40
2019-05-29T20:05:12.220Z,60.50
2019-05-29T20:07:41.127Z,60.10
2019-05-29T20:10:10.483Z,61.00
2019-05-29T20:12:39.350Z,61.20
2019-05-29T20:15:08.602Z,61.20
2019-05-29T20:17:39.647Z,62.00
2019-05-29T20:20:08.722Z,61.80
2019-05-29T20:22:39.107Z,62.00
2019-05-29T20:25:08.900Z,63.00
2019-05-29T20:27:38.528Z,62.70
2019-05-29T20:30:18.767Z,63.10
2019-05-29T20:32:48.410Z,63.20
2019-05-29T20:35:18.216Z,63.50
2019-05-29T20:37:47.223Z,63.70
2019-05-29T20:40:16.514Z,64.40
2019-05-29T20:42:45.468Z,64.60
2019-05-29T20:45:19.285Z,64.60
2019-05-29T20:47:48.560Z,64.60
2019-05-29T20:50:18.854Z,65.10
2019-05-29T20:52:47.841Z,64.90
2019-05-29T20:55:17.769Z,65.50
2019-05-29T20:57:46.648Z,65.70
2019-05-29T21:00:17.430Z,65.90
2019-05-29T21:02:46.690Z,66.00
2019-05-29T21:05:15.872Z,65.60
2019-05-29T21:07:44.957Z,66.20
2019-05-29T21:10:14.415Z,66.30
2019-05-29T21:12:47.288Z,66.30
2019-05-29T21:15:14.651Z,66.90
2019-05-29T21:17:44.076Z,66.90
2019-05-29T21:20:13.773Z,67.40
2019-05-29T21:22:43.011Z,68.10
2019-05-29T21:25:17.212Z,68.30
2019-05-29T21:27:48.817Z,68.80
2019-05-29T21:30:16.005Z,68.90
2019-05-29T21:32:45.989Z,69.00
2019-05-29T21:35:14.982Z,68.90
2019-05-29T21:37:44.421Z,69.70
2019-05-29T21:40:13.572Z,70.00
2019-05-29T21:42:42.885Z,70.50
2019-05-29T21:45:12.192Z,71.20
2019-05-29T21:47:43.483Z,71.20
2019-05-29T21:50:13.308Z,71.50
2019-05-29T21:52:43.489Z,71.50
2019-05-29T21:55:13.698Z,71.50
2019-05-29T21:57:45.557Z,71.10
2019-05-29T22:00:16.071Z,71.30
2019-05-29T22:02:46.404Z,71.50
2019-05-29T22:05:16.126Z,71.90
2019-05-29T22:07:45.078Z,72.10
2019-05-29T22:10:14.520Z,72.70
2019-05-29T22:12:43.354Z,72.40
2019-05-29T22:15:12.832Z,73.00
2019-05-29T22:17:41.838Z,72.90
2019-05-29T22:20:10.866Z,73.10
2019-05-29T22:22:40.098Z,72.90
2019-05-29T22:25:09.121Z,72.90
2019-05-29T22:27:38.349Z,72.60
2019-05-29T22:30:08.385Z,72.60
2019-05-29T22:32:37.284Z,72.90
2019-05-29T22:35:08.984Z,72.70
2019-05-29T22:37:37.898Z,72.60
2019-05-29T22:40:09.926Z,72.90
2019-05-29T22:42:38.819Z,72.90
2019-05-29T22:45:08.275Z,73.30
2019-05-29T22:47:37.094Z,73.50
2019-05-29T22:50:06.834Z,73.90
2019-05-29T22:52:35.856Z,74.00
2019-05-29T22:55:06.440Z,74.00
2019-05-29T22:57:35.491Z,74.00
2019-05-29T23:00:09.507Z,74.10
2019-05-29T23:02:38.650Z,74.10
2019-05-29T23:05:08.938Z,74.40
2019-05-29T23:07:37.943Z,74.40
2019-05-29T23:10:09.978Z,74.90
2019-05-29T23:12:38.877Z,75.50
2019-05-29T23:15:08.400Z,75.40
2019-05-29T23:17:37.297Z,75.40
2019-05-29T23:20:08.541Z,76.10
2019-05-29T23:22:37.612Z,75.70
2019-05-29T23:25:07.366Z,75.70
2019-05-29T23:27:36.742Z,76.30
2019-05-29T23:30:07.534Z,76.00
2019-05-29T23:32:36.353Z,76.00
2019-05-29T23:35:06.488Z,76.10
2019-05-29T23:37:35.445Z,76.50
2019-05-29T23:40:08.925Z,76.60
2019-05-29T23:42:37.839Z,77.00
2019-05-29T23:45:08.247Z,76.80
2019-05-29T23:47:37.075Z,77.10
2019-05-29T23:50:08.095Z,77.10
2019-05-29T23:52:36.993Z,77.50
2019-05-29T23:55:07.227Z,77.50
2019-05-29T23:57:36.111Z,77.50
